sensor_id;sensor_type;location;lat;lon;timestamp;P1;durP1;ratioP1;P2;durP2;ratioP2
25111;SDS011;13092;51.996;4.458;2023-09-18T00:00:56;58.15;;;52.33;;
25111;SDS011;13092;51.996;4.458;2023-09-18T00:03:26;57.55;;;51.92;;
25111;SDS011;13092;51.996;4.458;2023-09-18T00:05:54;58.25;;;52.65;;
25111;SDS011;13092;51.996;4.458;2023-09-18T00:08:23;58.88;;;53.33;;
25111;SDS011;13092;51.996;4.458;2023-09-18T00:10:52;56.80;;;51.10;;
25111;SDS011;13092;51.996;4.458;2023-09-18T00:13:21;58.80;;;52.97;;
25111;SDS011;13092;51.996;4.458;2023-09-18T00:15:54;57.53;;;51.90;;
25111;SDS011;13092;51.996;4.458;2023-09-18T00:18:27;56.78;;;51.25;;
25111;SDS011;13092;51.996;4.458;2023-09-18T00:20:55;57.40;;;51.60;;
25111;SDS011;13092;51.996;4.458;2023-09-18T00:23:24;56.20;;;50.90;;
25111;SDS011;13092;51.996;4.458;2023-09-18T00:25:52;55.55;;;50.50;;
25111;SDS011;13092;51.996;4.458;2023-09-18T00:28:20;55.65;;;50.60;;
25111;SDS011;13092;51.996;4.458;2023-09-18T00:30:49;55.05;;;49.97;;
25111;SDS011;13092;51.996;4.458;2023-09-18T00:33:17;54.45;;;49.65;;
25111;SDS011;13092;51.996;4.458;2023-09-18T00:35:48;56.17;;;51.03;;
25111;SDS011;13092;51.996;4.458;2023-09-18T00:38:17;57.45;;;52.03;;
25111;SDS011;13092;51.996;4.458;2023-09-18T00:40:46;58.80;;;53.20;;
25111;SDS011;13092;51.996;4.458;2023-09-18T00:43:14;55.58;;;50.58;;
25111;SDS011;13092;51.996;4.458;2023-09-18T00:45:45;57.20;;;51.78;;
25111;SDS011;13092;51.996;4.458;2023-09-18T00:48:14;55.90;;;50.85;;
25111;SDS011;13092;51.996;4.458;2023-09-18T00:50:44;54.53;;;49.53;;
25111;SDS011;13092;51.996;4.458;2023-09-18T00:53:17;57.90;;;52.50;;
25111;SDS011;13092;51.996;4.458;2023-09-18T00:55:47;58.25;;;52.75;;
25111;SDS011;13092;51.996;4.458;2023-09-18T00:58:17;56.33;;;51.35;;
25111;SDS011;13092;51.996;4.458;2023-09-18T01:00:46;56.80;;;51.45;;
25111;SDS011;13092;51.996;4.458;2023-09-18T01:03:17;58.22;;;52.72;;
25111;SDS011;13092;51.996;4.458;2023-09-18T01:05:47;58.85;;;53.30;;
25111;SDS011;13092;51.996;4.458;2023-09-18T01:08:16;59.05;;;53.45;;
25111;SDS011;13092;51.996;4.458;2023-09-18T01:10:47;58.42;;;53.08;;
25111;SDS011;13092;51.996;4.458;2023-09-18T01:13:21;57.70;;;52.55;;
25111;SDS011;13092;51.996;4.458;2023-09-18T01:15:58;56.35;;;51.25;;
25111;SDS011;13092;51.996;4.458;2023-09-18T01:18:31;56.40;;;51.35;;
25111;SDS011;13092;51.996;4.458;2023-09-18T01:21:01;56.38;;;51.28;;
25111;SDS011;13092;51.996;4.458;2023-09-18T01:23:31;55.95;;;51.03;;
25111;SDS011;13092;51.996;4.458;2023-09-18T01:25:59;56.55;;;51.08;;
25111;SDS011;13092;51.996;4.458;2023-09-18T01:28:27;57.85;;;52.30;;
25111;SDS011;13092;51.996;4.458;2023-09-18T01:30:55;56.70;;;51.47;;
25111;SDS011;13092;51.996;4.458;2023-09-18T01:33:24;57.25;;;52.03;;
25111;SDS011;13092;51.996;4.458;2023-09-18T01:35:54;55.22;;;50.20;;
25111;SDS011;13092;51.996;4.458;2023-09-18T01:38:23;56.22;;;51.03;;
25111;SDS011;13092;51.996;4.458;2023-09-18T01:40:53;57.70;;;52.42;;
25111;SDS011;13092;51.996;4.458;2023-09-18T01:43:22;57.92;;;52.60;;
25111;SDS011;13092;51.996;4.458;2023-09-18T01:45:50;55.15;;;50.22;;
25111;SDS011;13092;51.996;4.458;2023-09-18T01:48:19;55.92;;;50.88;;
25111;SDS011;13092;51.996;4.458;2023-09-18T01:50:47;56.30;;;51.22;;
25111;SDS011;13092;51.996;4.458;2023-09-18T01:53:15;54.88;;;49.88;;
25111;SDS011;13092;51.996;4.458;2023-09-18T01:55:43;55.90;;;50.90;;
25111;SDS011;13092;51.996;4.458;2023-09-18T01:58:13;56.15;;;50.90;;
25111;SDS011;13092;51.996;4.458;2023-09-18T02:00:42;53.10;;;48.30;;
25111;SDS011;13092;51.996;4.458;2023-09-18T02:03:11;56.88;;;51.70;;
25111;SDS011;13092;51.996;4.458;2023-09-18T02:05:59;55.03;;;50.13;;
25111;SDS011;13092;51.996;4.458;2023-09-18T02:08:28;56.03;;;51.00;;
25111;SDS011;13092;51.996;4.458;2023-09-18T02:10:57;54.22;;;49.53;;
25111;SDS011;13092;51.996;4.458;2023-09-18T02:13:27;57.75;;;52.15;;
25111;SDS011;13092;51.996;4.458;2023-09-18T02:15:55;53.40;;;48.75;;
25111;SDS011;13092;51.996;4.458;2023-09-18T02:18:24;53.28;;;48.63;;
25111;SDS011;13092;51.996;4.458;2023-09-18T02:20:52;53.60;;;48.70;;
25111;SDS011;13092;51.996;4.458;2023-09-18T02:23:20;53.72;;;48.92;;
25111;SDS011;13092;51.996;4.458;2023-09-18T02:25:54;53.75;;;48.80;;
25111;SDS011;13092;51.996;4.458;2023-09-18T02:28:23;52.05;;;47.35;;
25111;SDS011;13092;51.996;4.458;2023-09-18T02:30:53;51.45;;;47.00;;
25111;SDS011;13092;51.996;4.458;2023-09-18T02:33:21;50.63;;;46.28;;
25111;SDS011;13092;51.996;4.458;2023-09-18T02:35:49;49.28;;;44.88;;
25111;SDS011;13092;51.996;4.458;2023-09-18T02:38:18;50.35;;;45.75;;
25111;SDS011;13092;51.996;4.458;2023-09-18T02:40:46;48.60;;;44.60;;
25111;SDS011;13092;51.996;4.458;2023-09-18T02:43:14;49.45;;;45.15;;
25111;SDS011;13092;51.996;4.458;2023-09-18T02:45:42;47.92;;;43.70;;
25111;SDS011;13092;51.996;4.458;2023-09-18T02:48:13;48.55;;;44.15;;
25111;SDS011;13092;51.996;4.458;2023-09-18T02:50:41;51.08;;;46.42;;
25111;SDS011;13092;51.996;4.458;2023-09-18T02:53:12;47.22;;;43.15;;
25111;SDS011;13092;51.996;4.458;2023-09-18T02:55:44;48.47;;;44.38;;
25111;SDS011;13092;51.996;4.458;2023-09-18T02:58:13;47.95;;;43.92;;
25111;SDS011;13092;51.996;4.458;2023-09-18T03:00:42;48.20;;;43.90;;
25111;SDS011;13092;51.996;4.458;2023-09-18T03:03:11;48.03;;;43.92;;
25111;SDS011;13092;51.996;4.458;2023-09-18T03:05:42;48.65;;;44.33;;
25111;SDS011;13092;51.996;4.458;2023-09-18T03:08:12;49.10;;;44.78;;
25111;SDS011;13092;51.996;4.458;2023-09-18T03:10:42;49.35;;;45.05;;
25111;SDS011;13092;51.996;4.458;2023-09-18T03:13:13;50.08;;;45.67;;
25111;SDS011;13092;51.996;4.458;2023-09-18T03:15:45;50.35;;;45.95;;
25111;SDS011;13092;51.996;4.458;2023-09-18T03:18:15;49.33;;;45.25;;
25111;SDS011;13092;51.996;4.458;2023-09-18T03:20:44;50.40;;;46.15;;
25111;SDS011;13092;51.996;4.458;2023-09-18T03:23:12;48.22;;;44.22;;
25111;SDS011;13092;51.996;4.458;2023-09-18T03:25:40;47.70;;;43.80;;
25111;SDS011;13092;51.996;4.458;2023-09-18T03:28:17;48.85;;;44.67;;
25111;SDS011;13092;51.996;4.458;2023-09-18T03:30:45;50.58;;;46.35;;
25111;SDS011;13092;51.996;4.458;2023-09-18T03:33:13;49.38;;;45.10;;
25111;SDS011;13092;51.996;4.458;2023-09-18T03:35:46;51.25;;;46.60;;
25111;SDS011;13092;51.996;4.458;2023-09-18T03:38:15;50.78;;;46.08;;
25111;SDS011;13092;51.996;4.458;2023-09-18T03:40:44;51.50;;;46.30;;
25111;SDS011;13092;51.996;4.458;2023-09-18T03:43:13;50.20;;;45.45;;
25111;SDS011;13092;51.996;4.458;2023-09-18T03:45:41;50.28;;;45.42;;
25111;SDS011;13092;51.996;4.458;2023-09-18T03:48:10;49.53;;;44.58;;
25111;SDS011;13092;51.996;4.458;2023-09-18T03:50:40;48.58;;;43.55;;
25111;SDS011;13092;51.996;4.458;2023-09-18T03:53:09;48.08;;;43.25;;
25111;SDS011;13092;51.996;4.458;2023-09-18T03:55:37;47.38;;;42.95;;
25111;SDS011;13092;51.996;4.458;2023-09-18T03:58:05;44.65;;;40.67;;
25111;SDS011;13092;51.996;4.458;2023-09-18T04:00:33;45.95;;;41.45;;
25111;SDS011;13092;51.996;4.458;2023-09-18T04:03:02;45.60;;;41.20;;
25111;SDS011;13092;51.996;4.458;2023-09-18T04:05:31;45.05;;;40.80;;
25111;SDS011;13092;51.996;4.458;2023-09-18T04:08:01;45.38;;;40.97;;
25111;SDS011;13092;51.996;4.458;2023-09-18T04:10:29;44.72;;;40.55;;
25111;SDS011;13092;51.996;4.458;2023-09-18T04:12:59;43.47;;;39.60;;
25111;SDS011;13092;51.996;4.458;2023-09-18T04:15:28;42.10;;;38.17;;
25111;SDS011;13092;51.996;4.458;2023-09-18T04:17:57;44.33;;;40.13;;
25111;SDS011;13092;51.996;4.458;2023-09-18T04:20:26;42.78;;;38.88;;
25111;SDS011;13092;51.996;4.458;2023-09-18T04:25:49;42.13;;;38.33;;
25111;SDS011;13092;51.996;4.458;2023-09-18T04:28:18;42.97;;;38.80;;
25111;SDS011;13092;51.996;4.458;2023-09-18T04:30:48;44.70;;;40.35;;
25111;SDS011;13092;51.996;4.458;2023-09-18T04:33:17;43.60;;;39.63;;
25111;SDS011;13092;51.996;4.458;2023-09-18T04:35:45;46.05;;;41.50;;
25111;SDS011;13092;51.996;4.458;2023-09-18T04:38:13;44.38;;;40.08;;
25111;SDS011;13092;51.996;4.458;2023-09-18T04:40:45;44.13;;;40.08;;
25111;SDS011;13092;51.996;4.458;2023-09-18T04:43:14;43.53;;;39.22;;
25111;SDS011;13092;51.996;4.458;2023-09-18T04:45:43;42.55;;;38.65;;
25111;SDS011;13092;51.996;4.458;2023-09-18T04:48:12;42.58;;;38.58;;
25111;SDS011;13092;51.996;4.458;2023-09-18T04:50:40;43.05;;;39.05;;
25111;SDS011;13092;51.996;4.458;2023-09-18T04:53:09;41.78;;;37.97;;
25111;SDS011;13092;51.996;4.458;2023-09-18T04:55:37;42.05;;;38.20;;
25111;SDS011;13092;51.996;4.458;2023-09-18T04:58:07;41.97;;;37.95;;
25111;SDS011;13092;51.996;4.458;2023-09-18T05:00:35;41.40;;;37.53;;
25111;SDS011;13092;51.996;4.458;2023-09-18T05:03:03;41.80;;;37.88;;
25111;SDS011;13092;51.996;4.458;2023-09-18T05:05:32;41.95;;;38.08;;
25111;SDS011;13092;51.996;4.458;2023-09-18T05:08:01;42.92;;;38.65;;
25111;SDS011;13092;51.996;4.458;2023-09-18T05:10:31;43.65;;;39.55;;
25111;SDS011;13092;51.996;4.458;2023-09-18T05:12:59;42.30;;;38.10;;
25111;SDS011;13092;51.996;4.458;2023-09-18T05:15:33;42.95;;;38.75;;
25111;SDS011;13092;51.996;4.458;2023-09-18T05:18:01;42.92;;;38.80;;
25111;SDS011;13092;51.996;4.458;2023-09-18T05:20:31;43.85;;;38.75;;
25111;SDS011;13092;51.996;4.458;2023-09-18T05:23:00;42.03;;;37.88;;
25111;SDS011;13092;51.996;4.458;2023-09-18T05:25:33;42.83;;;38.42;;
25111;SDS011;13092;51.996;4.458;2023-09-18T05:28:04;43.15;;;38.92;;
25111;SDS011;13092;51.996;4.458;2023-09-18T05:30:34;43.03;;;38.92;;
25111;SDS011;13092;51.996;4.458;2023-09-18T05:33:05;43.67;;;39.42;;
25111;SDS011;13092;51.996;4.458;2023-09-18T05:35:35;43.60;;;39.22;;
25111;SDS011;13092;51.996;4.458;2023-09-18T05:38:08;42.42;;;38.45;;
25111;SDS011;13092;51.996;4.458;2023-09-18T05:40:37;43.28;;;39.17;;
25111;SDS011;13092;51.996;4.458;2023-09-18T05:43:05;43.60;;;39.47;;
25111;SDS011;13092;51.996;4.458;2023-09-18T05:45:36;43.33;;;39.03;;
25111;SDS011;13092;51.996;4.458;2023-09-18T05:48:04;43.83;;;39.63;;
25111;SDS011;13092;51.996;4.458;2023-09-18T05:50:34;43.78;;;39.58;;
25111;SDS011;13092;51.996;4.458;2023-09-18T05:53:02;45.33;;;40.90;;
25111;SDS011;13092;51.996;4.458;2023-09-18T05:55:31;45.03;;;40.50;;
25111;SDS011;13092;51.996;4.458;2023-09-18T05:58:01;44.10;;;39.55;;
25111;SDS011;13092;51.996;4.458;2023-09-18T06:00:31;44.38;;;40.17;;
25111;SDS011;13092;51.996;4.458;2023-09-18T06:03:01;44.03;;;39.72;;
25111;SDS011;13092;51.996;4.458;2023-09-18T06:05:32;44.15;;;39.95;;
25111;SDS011;13092;51.996;4.458;2023-09-18T06:08:01;44.80;;;40.47;;
25111;SDS011;13092;51.996;4.458;2023-09-18T06:10:29;45.90;;;41.42;;
25111;SDS011;13092;51.996;4.458;2023-09-18T06:12:57;44.75;;;40.35;;
25111;SDS011;13092;51.996;4.458;2023-09-18T06:15:30;42.67;;;38.50;;
25111;SDS011;13092;51.996;4.458;2023-09-18T06:18:00;41.90;;;38.17;;
25111;SDS011;13092;51.996;4.458;2023-09-18T06:20:30;41.70;;;37.80;;
25111;SDS011;13092;51.996;4.458;2023-09-18T06:22:58;41.00;;;37.30;;
25111;SDS011;13092;51.996;4.458;2023-09-18T06:25:26;41.03;;;37.22;;
25111;SDS011;13092;51.996;4.458;2023-09-18T06:27:54;40.08;;;36.45;;
25111;SDS011;13092;51.996;4.458;2023-09-18T06:30:23;39.40;;;35.90;;
25111;SDS011;13092;51.996;4.458;2023-09-18T06:32:51;40.13;;;36.25;;
25111;SDS011;13092;51.996;4.458;2023-09-18T06:35:21;37.92;;;34.53;;
25111;SDS011;13092;51.996;4.458;2023-09-18T06:37:50;37.38;;;34.17;;
25111;SDS011;13092;51.996;4.458;2023-09-18T06:40:20;37.65;;;34.35;;
25111;SDS011;13092;51.996;4.458;2023-09-18T06:42:48;37.35;;;34.15;;
25111;SDS011;13092;51.996;4.458;2023-09-18T06:45:18;38.08;;;34.65;;
25111;SDS011;13092;51.996;4.458;2023-09-18T06:47:46;37.13;;;33.92;;
25111;SDS011;13092;51.996;4.458;2023-09-18T06:50:14;36.80;;;33.60;;
25111;SDS011;13092;51.996;4.458;2023-09-18T06:52:46;36.20;;;33.20;;
25111;SDS011;13092;51.996;4.458;2023-09-18T06:55:16;36.50;;;33.40;;
25111;SDS011;13092;51.996;4.458;2023-09-18T06:57:44;36.58;;;33.22;;
25111;SDS011;13092;51.996;4.458;2023-09-18T07:00:14;36.70;;;33.60;;
25111;SDS011;13092;51.996;4.458;2023-09-18T07:02:45;36.75;;;33.53;;
25111;SDS011;13092;51.996;4.458;2023-09-18T07:05:13;36.67;;;33.42;;
25111;SDS011;13092;51.996;4.458;2023-09-18T07:07:41;36.60;;;33.63;;
25111;SDS011;13092;51.996;4.458;2023-09-18T07:10:11;36.38;;;33.38;;
25111;SDS011;13092;51.996;4.458;2023-09-18T07:12:39;36.42;;;33.40;;
25111;SDS011;13092;51.996;4.458;2023-09-18T07:15:07;36.50;;;33.50;;
25111;SDS011;13092;51.996;4.458;2023-09-18T07:17:36;36.70;;;33.70;;
25111;SDS011;13092;51.996;4.458;2023-09-18T07:20:05;36.28;;;33.28;;
25111;SDS011;13092;51.996;4.458;2023-09-18T07:22:44;37.42;;;34.13;;
25111;SDS011;13092;51.996;4.458;2023-09-18T07:25:14;37.80;;;34.53;;
25111;SDS011;13092;51.996;4.458;2023-09-18T07:27:43;37.58;;;34.25;;
25111;SDS011;13092;51.996;4.458;2023-09-18T07:30:11;38.67;;;35.13;;
25111;SDS011;13092;51.996;4.458;2023-09-18T07:32:42;38.28;;;34.88;;
25111;SDS011;13092;51.996;4.458;2023-09-18T07:35:11;36.58;;;33.42;;
25111;SDS011;13092;51.996;4.458;2023-09-18T07:37:41;37.20;;;34.10;;
25111;SDS011;13092;51.996;4.458;2023-09-18T07:40:10;36.70;;;33.60;;
25111;SDS011;13092;51.996;4.458;2023-09-18T07:42:40;36.75;;;33.75;;
25111;SDS011;13092;51.996;4.458;2023-09-18T07:45:10;37.03;;;33.80;;
25111;SDS011;13092;51.996;4.458;2023-09-18T07:47:38;36.95;;;33.95;;
25111;SDS011;13092;51.996;4.458;2023-09-18T07:50:06;36.92;;;33.83;;
25111;SDS011;13092;51.996;4.458;2023-09-18T07:52:35;37.20;;;34.10;;
25111;SDS011;13092;51.996;4.458;2023-09-18T07:55:04;37.05;;;33.95;;
25111;SDS011;13092;51.996;4.458;2023-09-18T07:57:33;38.67;;;35.38;;
25111;SDS011;13092;51.996;4.458;2023-09-18T08:00:04;37.30;;;34.22;;
25111;SDS011;13092;51.996;4.458;2023-09-18T08:02:37;37.35;;;34.25;;
25111;SDS011;13092;51.996;4.458;2023-09-18T08:05:06;37.10;;;34.00;;
25111;SDS011;13092;51.996;4.458;2023-09-18T08:07:35;36.78;;;33.80;;
25111;SDS011;13092;51.996;4.458;2023-09-18T08:10:03;36.30;;;33.30;;
25111;SDS011;13092;51.996;4.458;2023-09-18T08:12:35;36.65;;;33.63;;
25111;SDS011;13092;51.996;4.458;2023-09-18T08:15:05;37.70;;;34.25;;
25111;SDS011;13092;51.996;4.458;2023-09-18T08:17:35;37.40;;;34.20;;
25111;SDS011;13092;51.996;4.458;2023-09-18T08:20:03;35.95;;;33.17;;
25111;SDS011;13092;51.996;4.458;2023-09-18T08:22:38;36.65;;;33.55;;
25111;SDS011;13092;51.996;4.458;2023-09-18T08:25:07;36.30;;;33.17;;
25111;SDS011;13092;51.996;4.458;2023-09-18T08:27:37;38.03;;;34.75;;
25111;SDS011;13092;51.996;4.458;2023-09-18T08:30:14;38.00;;;34.83;;
25111;SDS011;13092;51.996;4.458;2023-09-18T08:32:43;37.10;;;33.80;;
25111;SDS011;13092;51.996;4.458;2023-09-18T08:35:12;36.35;;;33.55;;
25111;SDS011;13092;51.996;4.458;2023-09-18T08:37:41;36.85;;;33.95;;
25111;SDS011;13092;51.996;4.458;2023-09-18T08:40:10;37.63;;;34.72;;
25111;SDS011;13092;51.996;4.458;2023-09-18T08:42:44;37.60;;;34.80;;
25111;SDS011;13092;51.996;4.458;2023-09-18T08:45:18;38.08;;;35.08;;
25111;SDS011;13092;51.996;4.458;2023-09-18T08:47:49;38.15;;;35.05;;
25111;SDS011;13092;51.996;4.458;2023-09-18T08:50:20;38.55;;;35.55;;
25111;SDS011;13092;51.996;4.458;2023-09-18T08:52:49;38.08;;;34.97;;
25111;SDS011;13092;51.996;4.458;2023-09-18T08:55:18;38.40;;;35.40;;
25111;SDS011;13092;51.996;4.458;2023-09-18T08:57:46;38.72;;;35.63;;
25111;SDS011;13092;51.996;4.458;2023-09-18T09:00:17;38.55;;;35.55;;
25111;SDS011;13092;51.996;4.458;2023-09-18T09:02:45;38.80;;;35.80;;
25111;SDS011;13092;51.996;4.458;2023-09-18T09:05:15;39.88;;;36.83;;
25111;SDS011;13092;51.996;4.458;2023-09-18T09:07:44;39.28;;;36.38;;
25111;SDS011;13092;51.996;4.458;2023-09-18T09:10:12;39.97;;;36.78;;
25111;SDS011;13092;51.996;4.458;2023-09-18T09:12:46;39.33;;;36.35;;
25111;SDS011;13092;51.996;4.458;2023-09-18T09:15:22;40.20;;;37.10;;
25111;SDS011;13092;51.996;4.458;2023-09-18T09:18:01;39.60;;;36.67;;
25111;SDS011;13092;51.996;4.458;2023-09-18T09:20:30;39.08;;;36.28;;
25111;SDS011;13092;51.996;4.458;2023-09-18T09:23:00;39.42;;;36.25;;
25111;SDS011;13092;51.996;4.458;2023-09-18T09:25:29;39.80;;;36.58;;
25111;SDS011;13092;51.996;4.458;2023-09-18T09:27:59;40.63;;;37.55;;
25111;SDS011;13092;51.996;4.458;2023-09-18T09:30:33;40.63;;;37.63;;
25111;SDS011;13092;51.996;4.458;2023-09-18T09:33:03;41.35;;;38.05;;
25111;SDS011;13092;51.996;4.458;2023-09-18T09:35:34;39.47;;;36.58;;
25111;SDS011;13092;51.996;4.458;2023-09-18T09:38:06;40.15;;;37.05;;
25111;SDS011;13092;51.996;4.458;2023-09-18T09:40:38;39.08;;;36.08;;
25111;SDS011;13092;51.996;4.458;2023-09-18T09:43:08;38.97;;;36.25;;
25111;SDS011;13092;51.996;4.458;2023-09-18T09:45:39;40.50;;;37.60;;
25111;SDS011;13092;51.996;4.458;2023-09-18T09:48:08;42.08;;;38.85;;
25111;SDS011;13092;51.996;4.458;2023-09-18T09:50:43;42.03;;;38.67;;
25111;SDS011;13092;51.996;4.458;2023-09-18T09:53:13;40.83;;;37.85;;
25111;SDS011;13092;51.996;4.458;2023-09-18T09:55:42;39.53;;;36.72;;
25111;SDS011;13092;51.996;4.458;2023-09-18T09:58:11;41.63;;;38.72;;
25111;SDS011;13092;51.996;4.458;2023-09-18T10:00:43;41.58;;;38.58;;
25111;SDS011;13092;51.996;4.458;2023-09-18T10:03:15;43.40;;;40.13;;
25111;SDS011;13092;51.996;4.458;2023-09-18T10:05:45;47.72;;;44.03;;
25111;SDS011;13092;51.996;4.458;2023-09-18T10:08:14;45.20;;;41.60;;
25111;SDS011;13092;51.996;4.458;2023-09-18T10:10:45;46.00;;;42.60;;
25111;SDS011;13092;51.996;4.458;2023-09-18T10:13:16;45.05;;;41.85;;
25111;SDS011;13092;51.996;4.458;2023-09-18T10:15:51;45.63;;;42.42;;
25111;SDS011;13092;51.996;4.458;2023-09-18T10:18:26;46.72;;;43.08;;
25111;SDS011;13092;51.996;4.458;2023-09-18T10:21:00;47.20;;;43.92;;
25111;SDS011;13092;51.996;4.458;2023-09-18T10:23:37;48.80;;;45.30;;
25111;SDS011;13092;51.996;4.458;2023-09-18T10:26:19;49.45;;;45.80;;
25111;SDS011;13092;51.996;4.458;2023-09-18T10:28:52;46.78;;;43.47;;
25111;SDS011;13092;51.996;4.458;2023-09-18T10:31:27;45.65;;;42.30;;
25111;SDS011;13092;51.996;4.458;2023-09-18T10:33:56;44.72;;;41.58;;
25111;SDS011;13092;51.996;4.458;2023-09-18T10:36:26;44.85;;;41.78;;
25111;SDS011;13092;51.996;4.458;2023-09-18T10:39:00;46.80;;;43.70;;
25111;SDS011;13092;51.996;4.458;2023-09-18T10:41:34;46.85;;;43.95;;
25111;SDS011;13092;51.996;4.458;2023-09-18T10:44:04;48.00;;;44.92;;
25111;SDS011;13092;51.996;4.458;2023-09-18T10:46:34;47.58;;;44.58;;
25111;SDS011;13092;51.996;4.458;2023-09-18T10:49:03;48.10;;;44.90;;
25111;SDS011;13092;51.996;4.458;2023-09-18T10:51:32;50.83;;;47.53;;
25111;SDS011;13092;51.996;4.458;2023-09-18T10:54:00;52.72;;;49.22;;
25111;SDS011;13092;51.996;4.458;2023-09-18T10:56:30;52.38;;;48.88;;
25111;SDS011;13092;51.996;4.458;2023-09-18T10:58:59;50.75;;;47.35;;
25111;SDS011;13092;51.996;4.458;2023-09-18T11:01:31;51.33;;;48.10;;
25111;SDS011;13092;51.996;4.458;2023-09-18T11:04:01;52.00;;;48.40;;
25111;SDS011;13092;51.996;4.458;2023-09-18T11:09:39;50.33;;;46.95;;
25111;SDS011;13092;51.996;4.458;2023-09-18T11:12:09;49.70;;;46.78;;
25111;SDS011;13092;51.996;4.458;2023-09-18T11:14:41;50.58;;;47.47;;
25111;SDS011;13092;51.996;4.458;2023-09-18T11:20:16;51.65;;;48.42;;
25111;SDS011;13092;51.996;4.458;2023-09-18T11:22:46;49.58;;;46.58;;
25111;SDS011;13092;51.996;4.458;2023-09-18T11:25:37;50.05;;;47.05;;
25111;SDS011;13092;51.996;4.458;2023-09-18T11:28:06;47.05;;;44.35;;
25111;SDS011;13092;51.996;4.458;2023-09-18T11:30:36;46.97;;;44.22;;
25111;SDS011;13092;51.996;4.458;2023-09-18T11:33:07;43.20;;;40.70;;
25111;SDS011;13092;51.996;4.458;2023-09-18T11:35:38;48.10;;;45.30;;
25111;SDS011;13092;51.996;4.458;2023-09-18T11:38:19;52.78;;;49.67;;
25111;SDS011;13092;51.996;4.458;2023-09-18T11:40:49;50.92;;;47.88;;
25111;SDS011;13092;51.996;4.458;2023-09-18T11:43:21;53.95;;;50.83;;
25111;SDS011;13092;51.996;4.458;2023-09-18T11:45:56;54.05;;;50.85;;
25111;SDS011;13092;51.996;4.458;2023-09-18T11:48:26;54.58;;;51.28;;
25111;SDS011;13092;51.996;4.458;2023-09-18T11:50:58;49.28;;;46.47;;
25111;SDS011;13092;51.996;4.458;2023-09-18T11:53:33;52.05;;;48.97;;
25111;SDS011;13092;51.996;4.458;2023-09-18T11:56:04;54.88;;;51.78;;
25111;SDS011;13092;51.996;4.458;2023-09-18T11:58:44;56.30;;;53.00;;
25111;SDS011;13092;51.996;4.458;2023-09-18T12:01:13;52.35;;;48.55;;
25111;SDS011;13092;51.996;4.458;2023-09-18T12:03:42;53.10;;;49.65;;
25111;SDS011;13092;51.996;4.458;2023-09-18T12:06:12;55.05;;;51.67;;
25111;SDS011;13092;51.996;4.458;2023-09-18T12:08:42;51.33;;;48.17;;
25111;SDS011;13092;51.996;4.458;2023-09-18T12:11:10;51.20;;;48.10;;
25111;SDS011;13092;51.996;4.458;2023-09-18T12:13:45;43.28;;;40.78;;
25111;SDS011;13092;51.996;4.458;2023-09-18T12:16:14;46.97;;;43.97;;
25111;SDS011;13092;51.996;4.458;2023-09-18T12:18:46;49.28;;;46.28;;
25111;SDS011;13092;51.996;4.458;2023-09-18T12:21:17;56.60;;;53.30;;
25111;SDS011;13092;51.996;4.458;2023-09-18T12:23:46;58.70;;;55.30;;
25111;SDS011;13092;51.996;4.458;2023-09-18T12:26:15;61.25;;;57.38;;
25111;SDS011;13092;51.996;4.458;2023-09-18T12:28:45;64.50;;;60.55;;
25111;SDS011;13092;51.996;4.458;2023-09-18T12:31:14;66.95;;;62.85;;
25111;SDS011;13092;51.996;4.458;2023-09-18T12:33:43;66.63;;;62.35;;
25111;SDS011;13092;51.996;4.458;2023-09-18T12:36:13;68.95;;;64.88;;
25111;SDS011;13092;51.996;4.458;2023-09-18T12:38:56;66.20;;;61.80;;
25111;SDS011;13092;51.996;4.458;2023-09-18T12:41:25;66.72;;;62.72;;
25111;SDS011;13092;51.996;4.458;2023-09-18T12:43:58;61.38;;;57.38;;
25111;SDS011;13092;51.996;4.458;2023-09-18T12:46:27;66.70;;;62.65;;
25111;SDS011;13092;51.996;4.458;2023-09-18T12:48:57;65.85;;;62.05;;
25111;SDS011;13092;51.996;4.458;2023-09-18T12:51:32;61.83;;;58.03;;
25111;SDS011;13092;51.996;4.458;2023-09-18T12:54:02;60.85;;;57.13;;
25111;SDS011;13092;51.996;4.458;2023-09-18T12:56:34;61.88;;;58.28;;
25111;SDS011;13092;51.996;4.458;2023-09-18T12:59:08;53.30;;;50.38;;
25111;SDS011;13092;51.996;4.458;2023-09-18T13:01:45;58.42;;;55.15;;
25111;SDS011;13092;51.996;4.458;2023-09-18T13:04:15;61.15;;;57.63;;
25111;SDS011;13092;51.996;4.458;2023-09-18T13:06:43;52.30;;;49.00;;
25111;SDS011;13092;51.996;4.458;2023-09-18T13:09:16;53.15;;;49.92;;
25111;SDS011;13092;51.996;4.458;2023-09-18T13:11:53;47.67;;;44.88;;
25111;SDS011;13092;51.996;4.458;2023-09-18T13:14:22;43.88;;;41.35;;
25111;SDS011;13092;51.996;4.458;2023-09-18T13:16:50;55.10;;;51.85;;
25111;SDS011;13092;51.996;4.458;2023-09-18T13:19:18;48.95;;;46.15;;
25111;SDS011;13092;51.996;4.458;2023-09-18T13:21:47;55.78;;;52.47;;
25111;SDS011;13092;51.996;4.458;2023-09-18T13:24:28;51.72;;;48.75;;
25111;SDS011;13092;51.996;4.458;2023-09-18T13:26:58;53.50;;;50.42;;
25111;SDS011;13092;51.996;4.458;2023-09-18T13:29:27;53.63;;;50.47;;
25111;SDS011;13092;51.996;4.458;2023-09-18T13:31:55;56.03;;;52.72;;
25111;SDS011;13092;51.996;4.458;2023-09-18T13:34:26;59.53;;;54.88;;
25111;SDS011;13092;51.996;4.458;2023-09-18T13:36:56;59.13;;;55.50;;
25111;SDS011;13092;51.996;4.458;2023-09-18T13:39:25;56.20;;;52.90;;
25111;SDS011;13092;51.996;4.458;2023-09-18T13:41:54;41.33;;;38.92;;
25111;SDS011;13092;51.996;4.458;2023-09-18T13:44:23;41.78;;;39.28;;
25111;SDS011;13092;51.996;4.458;2023-09-18T13:46:51;40.72;;;38.42;;
25111;SDS011;13092;51.996;4.458;2023-09-18T13:49:19;44.17;;;41.60;;
25111;SDS011;13092;51.996;4.458;2023-09-18T13:51:52;53.40;;;50.50;;
25111;SDS011;13092;51.996;4.458;2023-09-18T13:54:23;54.35;;;51.30;;
25111;SDS011;13092;51.996;4.458;2023-09-18T13:56:51;47.45;;;44.88;;
25111;SDS011;13092;51.996;4.458;2023-09-18T13:59:25;52.63;;;49.72;;
25111;SDS011;13092;51.996;4.458;2023-09-18T14:01:54;59.72;;;56.47;;
25111;SDS011;13092;51.996;4.458;2023-09-18T14:04:22;59.55;;;56.30;;
25111;SDS011;13092;51.996;4.458;2023-09-18T14:06:50;58.90;;;55.63;;
25111;SDS011;13092;51.996;4.458;2023-09-18T14:09:19;78.65;;;73.90;;
25111;SDS011;13092;51.996;4.458;2023-09-18T14:11:47;81.53;;;76.30;;
25111;SDS011;13092;51.996;4.458;2023-09-18T14:14:15;83.10;;;77.65;;
25111;SDS011;13092;51.996;4.458;2023-09-18T14:16:45;80.15;;;74.80;;
25111;SDS011;13092;51.996;4.458;2023-09-18T14:19:13;71.78;;;65.78;;
25111;SDS011;13092;51.996;4.458;2023-09-18T14:21:41;67.53;;;61.70;;
25111;SDS011;13092;51.996;4.458;2023-09-18T14:24:09;63.90;;;58.10;;
25111;SDS011;13092;51.996;4.458;2023-09-18T14:26:38;64.20;;;58.65;;
25111;SDS011;13092;51.996;4.458;2023-09-18T14:29:08;60.97;;;55.40;;
25111;SDS011;13092;51.996;4.458;2023-09-18T14:31:36;57.30;;;51.80;;
25111;SDS011;13092;51.996;4.458;2023-09-18T14:34:06;57.67;;;52.28;;
25111;SDS011;13092;51.996;4.458;2023-09-18T14:36:36;55.47;;;50.45;;
25111;SDS011;13092;51.996;4.458;2023-09-18T14:39:05;55.55;;;50.22;;
25111;SDS011;13092;51.996;4.458;2023-09-18T14:41:35;54.63;;;49.42;;
25111;SDS011;13092;51.996;4.458;2023-09-18T14:44:04;53.28;;;48.47;;
25111;SDS011;13092;51.996;4.458;2023-09-18T14:46:35;53.00;;;47.95;;